createdAt,value
2018-04-26T00:00:37.414Z,85.52
2018-04-26T00:01:37.396Z,85.71
2018-04-26T00:02:37.381Z,85.52
2018-04-26T00:03:37.360Z,86.28
2018-04-26T00:04:37.340Z,85.99
2018-04-26T00:05:37.326Z,85.61
2018-04-26T00:06:37.305Z,86.66
2018-04-26T00:07:37.287Z,86.09
2018-04-26T00:08:37.269Z,85.61
2018-04-26T00:09:37.250Z,85.99
2018-04-26T00:10:37.232Z,85.61
2018-04-26T00:11:37.217Z,85.61
2018-04-26T00:12:37.196Z,85.24
2018-04-26T00:13:37.178Z,85.24
2018-04-26T00:14:37.163Z,84.66
2018-04-26T00:15:37.147Z,84.28
2018-04-26T00:16:37.125Z,84.38
2018-04-26T00:17:37.107Z,84.38
2018-04-26T00:18:37.090Z,84.56
2018-04-26T00:19:37.071Z,84.76
2018-04-26T00:20:37.077Z,85.33
2018-04-26T00:21:37.035Z,85.24
2018-04-26T00:22:37.018Z,84.38
2018-04-26T00:23:36.997Z,85.24
2018-04-26T00:24:36.982Z,84.85
2018-04-26T00:25:36.962Z,84.85
2018-04-26T00:26:36.945Z,84.56
2018-04-26T00:27:36.924Z,84.85
2018-04-26T00:28:36.912Z,84.56
2018-04-26T00:29:36.889Z,84.47
2018-04-26T00:30:36.875Z,84.47
2018-04-26T00:31:36.861Z,84.66
2018-04-26T00:32:36.835Z,85.14
2018-04-26T00:33:36.822Z,85.33
2018-04-26T00:34:36.873Z,84.85
2018-04-26T00:35:36.790Z,85.14
2018-04-26T00:36:36.767Z,85.14
2018-04-26T00:37:36.746Z,85.42
2018-04-26T00:38:36.730Z,85.61
2018-04-26T00:39:36.709Z,85.14
2018-04-26T00:40:36.699Z,85.90
2018-04-26T00:41:36.674Z,85.99
2018-04-26T00:42:36.655Z,85.76
2018-04-26T00:43:36.635Z,86.14
2018-04-26T00:44:36.619Z,86.71
2018-04-26T00:45:36.601Z,85.71
2018-04-26T00:46:36.587Z,85.99
2018-04-26T00:47:36.565Z,86.28
2018-04-26T00:48:36.545Z,85.95
2018-04-26T00:49:36.528Z,86.90
2018-04-26T00:50:36.511Z,86.85
2018-04-26T00:51:36.492Z,86.71
2018-04-26T00:52:36.475Z,87.19
2018-04-26T00:53:36.459Z,86.52
2018-04-26T00:54:36.438Z,87.19
2018-04-26T00:55:36.417Z,87.57
2018-04-26T00:56:36.399Z,87.28
2018-04-26T00:57:36.383Z,87.57
2018-04-26T00:58:36.364Z,87.66
2018-04-26T00:59:36.346Z,87.57
2018-04-26T01:00:36.324Z,87.85
2018-04-26T01:01:36.310Z,87.85
2018-04-26T01:02:36.290Z,88.52
2018-04-26T01:03:36.272Z,88.04
2018-04-26T01:04:36.253Z,88.23
2018-04-26T01:05:36.236Z,88.13
2018-04-26T01:06:36.218Z,88.23
2018-04-26T01:07:36.198Z,88.71
2018-04-26T01:08:36.185Z,88.90
2018-04-26T01:09:36.162Z,88.61
2018-04-26T01:10:36.145Z,89.18
2018-04-26T01:11:36.123Z,88.42
2018-04-26T01:12:36.109Z,88.61
2018-04-26T01:13:36.088Z,88.80
2018-04-26T01:14:36.067Z,88.80
2018-04-26T01:15:36.049Z,88.04
2018-04-26T01:16:36.030Z,88.23
2018-04-26T01:17:36.012Z,89.00
2018-04-26T01:18:35.995Z,88.80
2018-04-26T01:19:35.978Z,88.33
2018-04-26T01:20:35.960Z,88.33
2018-04-26T01:21:35.938Z,89.09
2018-04-26T01:22:35.919Z,88.61
2018-04-26T01:23:35.902Z,89.09
2018-04-26T01:24:35.881Z,89.18
2018-04-26T01:25:35.864Z,88.80
2018-04-26T01:26:35.845Z,89.18
2018-04-26T01:27:35.829Z,89.37
2018-04-26T01:28:35.812Z,88.61
2018-04-26T01:29:35.794Z,89.09
2018-04-26T01:30:35.771Z,89.18
2018-04-26T01:31:35.752Z,89.18
2018-04-26T01:32:35.733Z,88.76
2018-04-26T01:33:35.715Z,89.09
2018-04-26T01:34:35.696Z,88.57
2018-04-26T01:35:35.676Z,88.71
2018-04-26T01:36:35.661Z,89.37
2018-04-26T01:37:35.649Z,89.09
2018-04-26T01:38:35.631Z,88.71
2018-04-26T01:39:35.602Z,88.23
2018-04-26T01:40:35.586Z,89.56
2018-04-26T01:41:35.568Z,89.04
2018-04-26T01:42:35.547Z,88.90
2018-04-26T01:43:35.528Z,89.14
2018-04-26T01:44:35.508Z,88.76
2018-04-26T01:45:35.491Z,88.80
2018-04-26T01:46:35.474Z,88.95
2018-04-26T01:47:35.454Z,88.28
2018-04-26T01:48:35.434Z,89.18
2018-04-26T01:49:35.419Z,89.18
2018-04-26T01:50:35.400Z,89.09
2018-04-26T01:51:35.378Z,89.52
2018-04-26T01:52:35.361Z,89.04
2018-04-26T01:53:35.343Z,89.71
2018-04-26T01:54:35.324Z,89.04
2018-04-26T01:55:35.302Z,89.04
2018-04-26T01:56:35.283Z,88.57
2018-04-26T01:57:35.265Z,88.85
2018-04-26T01:58:35.247Z,88.57
2018-04-26T01:59:35.226Z,89.33
2018-04-26T02:00:35.209Z,89.04
2018-04-26T02:01:35.193Z,89.14
2018-04-26T02:02:35.171Z,89.61
2018-04-26T02:03:35.152Z,89.52
2018-04-26T02:04:35.133Z,89.52
2018-04-26T02:05:35.113Z,89.52
2018-04-26T02:06:35.097Z,90.09
2018-04-26T02:07:35.076Z,89.90
2018-04-26T02:08:35.058Z,90.28
2018-04-26T02:09:35.048Z,89.80
2018-04-26T02:10:35.024Z,89.23
2018-04-26T02:11:35.001Z,90.19
2018-04-26T02:12:34.985Z,89.80
2018-04-26T02:13:34.961Z,90.09
2018-04-26T02:14:34.945Z,90.37
2018-04-26T02:15:34.933Z,89.90
2018-04-26T02:16:34.905Z,89.80
2018-04-26T02:17:34.886Z,89.14
2018-04-26T02:18:34.868Z,90.00
2018-04-26T02:19:34.848Z,89.23
2018-04-26T02:20:34.831Z,89.52
2018-04-26T02:21:34.814Z,89.23
2018-04-26T02:22:34.791Z,89.71
2018-04-26T02:23:34.772Z,89.90
2018-04-26T02:24:34.756Z,90.00
2018-04-26T02:25:34.734Z,89.42
2018-04-26T02:26:34.716Z,90.09
2018-04-26T02:27:34.695Z,90.28
2018-04-26T02:28:34.677Z,89.80
2018-04-26T02:29:34.660Z,89.90
2018-04-26T02:30:34.642Z,89.90
2018-04-26T02:31:34.627Z,89.71
2018-04-26T02:32:34.602Z,89.90
2018-04-26T02:33:34.583Z,89.71
2018-04-26T02:34:34.563Z,90.37
2018-04-26T02:35:34.543Z,90.28
2018-04-26T02:36:34.524Z,90.47
2018-04-26T02:37:34.504Z,90.28
2018-04-26T02:38:34.486Z,90.56
2018-04-26T02:39:34.466Z,90.37
2018-04-26T02:40:34.447Z,90.56
2018-04-26T02:41:34.434Z,90.23
2018-04-26T02:42:34.415Z,89.95
2018-04-26T02:43:34.394Z,90.23
2018-04-26T02:44:34.371Z,90.23
2018-04-26T02:45:34.361Z,90.14
2018-04-26T02:46:34.334Z,91.28
2018-04-26T02:47:34.315Z,90.80
2018-04-26T02:48:34.303Z,90.42
2018-04-26T02:49:34.276Z,90.52
2018-04-26T02:50:34.257Z,90.23
2018-04-26T02:51:34.239Z,90.23
2018-04-26T02:52:34.222Z,90.23
2018-04-26T02:53:34.200Z,90.52
2018-04-26T02:54:34.181Z,90.33
2018-04-26T02:55:34.162Z,90.14
2018-04-26T02:56:34.147Z,90.52
2018-04-26T02:57:34.129Z,90.52
2018-04-26T02:58:34.113Z,90.23
2018-04-26T02:59:34.085Z,90.52
2018-04-26T03:00:34.066Z,90.42
2018-04-26T03:01:34.046Z,90.33
2018-04-26T03:02:34.027Z,89.95
2018-04-26T03:03:34.009Z,89.95
2018-04-26T03:04:34.062Z,89.86
2018-04-26T03:05:33.968Z,90.52
2018-04-26T03:06:33.952Z,90.80
2018-04-26T03:07:33.931Z,90.42
2018-04-26T03:08:33.912Z,90.80
2018-04-26T03:09:33.893Z,90.61
2018-04-26T03:10:33.875Z,91.09
2018-04-26T03:11:33.854Z,90.52
2018-04-26T03:12:33.841Z,90.23
2018-04-26T03:13:33.819Z,90.23
2018-04-26T03:14:33.801Z,89.86
2018-04-26T03:15:33.777Z,90.52
2018-04-26T03:16:33.763Z,89.95
2018-04-26T03:17:33.741Z,90.33
2018-04-26T03:18:33.720Z,90.28
2018-04-26T03:19:33.712Z,90.33
2018-04-26T03:20:33.683Z,90.23
2018-04-26T03:21:33.670Z,90.80
2018-04-26T03:22:33.642Z,90.85
2018-04-26T03:23:33.637Z,90.47
2018-04-26T03:24:33.609Z,90.47
2018-04-26T03:25:33.587Z,90.37
2018-04-26T03:26:33.568Z,89.90
2018-04-26T03:27:33.552Z,90.28
2018-04-26T03:28:33.526Z,89.90
2018-04-26T03:29:33.511Z,90.19
2018-04-26T03:30:33.494Z,90.28
2018-04-26T03:31:33.469Z,89.23
2018-04-26T03:32:33.450Z,88.67
2018-04-26T03:33:33.433Z,88.76
2018-04-26T03:34:33.414Z,88.76
2018-04-26T03:35:33.396Z,88.85
2018-04-26T03:36:33.377Z,88.57
2018-04-26T03:37:33.356Z,88.95
2018-04-26T03:38:33.342Z,88.95
2018-04-26T03:39:33.318Z,89.52
2018-04-26T03:40:33.299Z,89.38
2018-04-26T03:41:33.281Z,89.19
2018-04-26T03:42:33.262Z,89.38
2018-04-26T03:43:33.244Z,89.19
2018-04-26T03:44:33.222Z,89.04
2018-04-26T03:45:33.204Z,89.14
2018-04-26T03:46:33.185Z,88.81
2018-04-26T03:47:33.170Z,88.71
2018-04-26T03:48:33.147Z,88.71
2018-04-26T03:49:33.130Z,88.71
2018-04-26T03:50:33.108Z,88.81
2018-04-26T03:51:33.090Z,88.90
2018-04-26T03:52:33.070Z,88.15
2018-04-26T03:53:33.054Z,89.28
2018-04-26T03:54:33.033Z,89.67
2018-04-26T03:55:33.015Z,89.47
2018-04-26T03:56:32.993Z,89.28
2018-04-26T03:57:32.974Z,89.19
2018-04-26T03:58:32.962Z,89.19
2018-04-26T03:59:32.937Z,89.09
2018-04-26T04:00:32.917Z,89.00
2018-04-26T04:01:32.926Z,88.81
2018-04-26T04:02:32.882Z,89.00
2018-04-26T04:03:32.860Z,89.00
2018-04-26T04:04:32.841Z,89.09
2018-04-26T04:05:32.820Z,88.62
2018-04-26T04:06:32.802Z,88.43
2018-04-26T04:07:32.784Z,88.62
2018-04-26T04:08:32.764Z,88.15
2018-04-26T04:09:32.745Z,88.81
2018-04-26T04:10:32.726Z,88.71
2018-04-26T04:11:32.707Z,89.00
2018-04-26T04:12:32.698Z,88.81
2018-04-26T04:13:32.668Z,88.43
2018-04-26T04:14:32.649Z,88.81
2018-04-26T04:15:32.630Z,88.62
2018-04-26T04:16:32.610Z,88.71
2018-04-26T04:17:32.593Z,89.09
2018-04-26T04:18:32.573Z,88.81
2018-04-26T04:19:32.551Z,88.71
2018-04-26T04:20:32.538Z,88.71
2018-04-26T04:21:32.517Z,88.71
2018-04-26T04:22:32.494Z,89.28
2018-04-26T04:23:32.473Z,89.19
2018-04-26T04:24:32.456Z,89.38
2018-04-26T04:25:32.440Z,89.76
2018-04-26T04:26:32.421Z,89.19
2018-04-26T04:27:32.399Z,90.05
2018-04-26T04:28:32.380Z,90.33
2018-04-26T04:29:32.363Z,90.42
2018-04-26T04:30:32.343Z,91.09
2018-04-26T04:31:32.321Z,90.80
2018-04-26T04:32:32.303Z,90.90
2018-04-26T04:33:32.282Z,90.71
2018-04-26T04:34:32.267Z,90.90
2018-04-26T04:35:32.247Z,90.90
2018-04-26T04:36:32.230Z,90.80
2018-04-26T04:37:32.208Z,90.90
2018-04-26T04:38:32.189Z,91.23
2018-04-26T04:39:32.170Z,90.75
2018-04-26T04:40:32.154Z,90.75
2018-04-26T04:41:32.130Z,90.85
2018-04-26T04:42:32.111Z,90.66
2018-04-26T04:43:32.098Z,90.85
2018-04-26T04:44:32.073Z,90.94
2018-04-26T04:45:32.055Z,90.94
2018-04-26T04:46:32.039Z,90.75
2018-04-26T04:47:32.015Z,90.85
2018-04-26T04:48:32.001Z,91.04
2018-04-26T04:49:31.978Z,90.75
2018-04-26T04:50:31.969Z,91.18
2018-04-26T04:51:31.943Z,90.66
2018-04-26T04:52:31.929Z,91.28
2018-04-26T04:53:31.903Z,91.18
2018-04-26T04:54:31.884Z,90.33
2018-04-26T04:55:31.864Z,90.70
2018-04-26T04:56:31.852Z,91.08
2018-04-26T04:57:31.827Z,90.42
2018-04-26T04:58:31.809Z,90.14
2018-04-26T04:59:31.789Z,89.85
2018-04-26T05:00:31.773Z,89.75
2018-04-26T05:01:31.752Z,90.33
2018-04-26T05:02:31.734Z,89.85
2018-04-26T05:03:31.715Z,90.14
2018-04-26T05:04:31.697Z,89.75
2018-04-26T05:05:31.678Z,90.33
2018-04-26T05:06:31.658Z,89.47
2018-04-26T05:07:31.640Z,89.66
2018-04-26T05:08:31.672Z,89.37
2018-04-26T05:09:31.603Z,89.37
2018-04-26T05:10:31.589Z,89.28
2018-04-26T05:11:31.565Z,89.14
2018-04-26T05:12:31.549Z,88.94
2018-04-26T05:13:31.534Z,88.75
2018-04-26T05:14:31.515Z,88.75
2018-04-26T05:15:31.491Z,88.46
2018-04-26T05:16:31.476Z,88.94
2018-04-26T05:17:31.455Z,88.46
2018-04-26T05:18:31.438Z,88.28
2018-04-26T05:19:31.418Z,88.09
2018-04-26T05:20:31.401Z,88.18
2018-04-26T05:21:31.381Z,88.18
2018-04-26T05:22:31.367Z,88.37
2018-04-26T05:23:31.351Z,88.37
2018-04-26T05:24:31.327Z,88.37
2018-04-26T05:25:31.309Z,88.18
2018-04-26T05:26:31.295Z,87.71
2018-04-26T05:27:31.271Z,88.09
2018-04-26T05:28:31.253Z,87.80
2018-04-26T05:29:31.233Z,87.32
2018-04-26T05:30:31.223Z,86.90
2018-04-26T05:31:31.201Z,87.08
2018-04-26T05:32:31.181Z,87.37
2018-04-26T05:33:31.161Z,87.08
2018-04-26T05:34:31.149Z,86.80
2018-04-26T05:35:31.187Z,86.80
2018-04-26T05:36:31.107Z,86.61
2018-04-26T05:37:31.098Z,87.18
2018-04-26T05:38:31.072Z,86.61
2018-04-26T05:39:31.063Z,86.13
2018-04-26T05:40:31.038Z,85.94
2018-04-26T05:41:31.020Z,86.04
2018-04-26T05:42:31.000Z,85.94
2018-04-26T05:43:30.988Z,86.70
2018-04-26T05:44:30.965Z,86.70
2018-04-26T05:45:30.947Z,86.70
2018-04-26T05:46:30.930Z,86.04
2018-04-26T05:47:30.910Z,86.13
2018-04-26T05:48:30.897Z,86.80
2018-04-26T05:49:30.875Z,87.46
2018-04-26T05:50:30.862Z,87.85
2018-04-26T05:51:30.845Z,87.18
2018-04-26T05:52:30.828Z,87.46
2018-04-26T05:53:30.803Z,87.37
2018-04-26T05:54:30.788Z,87.18
2018-04-26T05:55:30.769Z,87.94
2018-04-26T05:56:30.754Z,87.65
2018-04-26T05:57:30.732Z,87.85
2018-04-26T05:58:30.722Z,88.42
2018-04-26T05:59:30.705Z,87.85
2018-04-26T06:00:30.680Z,87.37
2018-04-26T06:01:30.663Z,87.27
2018-04-26T06:02:30.646Z,86.99
2018-04-26T06:03:30.689Z,86.80
2018-04-26T06:04:30.613Z,87.23
2018-04-26T06:05:30.604Z,87.03
2018-04-26T06:06:30.579Z,86.42
2018-04-26T06:07:30.555Z,86.75
2018-04-26T06:08:30.537Z,85.94
2018-04-26T06:09:30.529Z,85.89
2018-04-26T06:10:30.511Z,85.99
2018-04-26T06:11:30.487Z,85.89
2018-04-26T06:12:30.467Z,85.51
2018-04-26T06:13:30.451Z,85.70
2018-04-26T06:14:30.435Z,85.22
2018-04-26T06:15:30.416Z,85.51
2018-04-26T06:16:30.397Z,85.22
2018-04-26T06:17:30.379Z,84.31
2018-04-26T06:18:30.360Z,83.93
2018-04-26T06:19:30.350Z,83.55
2018-04-26T06:20:30.326Z,83.07
2018-04-26T06:21:30.311Z,82.60
2018-04-26T06:22:30.299Z,83.45
2018-04-26T06:23:30.274Z,83.26
2018-04-26T06:24:30.260Z,82.54
2018-04-26T06:25:30.244Z,82.12
2018-04-26T06:26:30.232Z,82.17
2018-04-26T06:27:30.210Z,81.30
2018-04-26T06:28:30.195Z,82.17
2018-04-26T06:29:30.175Z,82.26
2018-04-26T06:30:30.156Z,82.17
2018-04-26T06:31:30.139Z,82.26
2018-04-26T06:32:30.123Z,81.97
2018-04-26T06:33:30.106Z,82.07
2018-04-26T06:34:30.093Z,81.88
2018-04-26T06:35:30.072Z,82.26
2018-04-26T06:36:30.061Z,82.17
2018-04-26T06:37:30.041Z,82.50
2018-04-26T06:38:30.021Z,82.41
2018-04-26T06:39:30.005Z,84.22
2018-04-26T06:40:29.989Z,85.64
2018-04-26T06:41:29.973Z,86.98
2018-04-26T06:42:29.955Z,87.55
2018-04-26T06:43:29.939Z,88.70
2018-04-26T06:44:29.922Z,88.60
2018-04-26T06:45:29.906Z,89.26
2018-04-26T06:46:29.889Z,89.46
2018-04-26T06:47:29.873Z,89.36
2018-04-26T06:48:29.855Z,89.36
2018-04-26T06:49:29.876Z,89.65
2018-04-26T06:50:29.854Z,89.36
2018-04-26T06:51:29.804Z,90.22
2018-04-26T06:52:29.791Z,90.46
2018-04-26T06:53:29.865Z,89.98
2018-04-26T06:54:29.753Z,90.27
2018-04-26T06:55:29.739Z,90.60
2018-04-26T06:56:29.724Z,89.89
2018-04-26T06:57:29.705Z,90.17
2018-04-26T06:58:29.685Z,90.65
2018-04-26T06:59:29.671Z,90.84
2018-04-26T07:00:29.739Z,90.56
2018-04-26T07:01:29.634Z,90.79
2018-04-26T07:02:29.618Z,90.56
2018-04-26T07:03:29.599Z,89.98
2018-04-26T07:04:29.582Z,90.08
2018-04-26T07:05:29.567Z,90.56
2018-04-26T07:06:29.548Z,90.31
2018-04-26T07:07:29.535Z,90.36
2018-04-26T07:08:29.513Z,90.27
2018-04-26T07:09:29.505Z,89.32
2018-04-26T07:10:29.493Z,89.51
2018-04-26T07:11:29.462Z,90.56
2018-04-26T07:12:29.445Z,91.22
2018-04-26T07:13:29.437Z,91.31
2018-04-26T07:14:29.414Z,91.08
2018-04-26T07:15:29.395Z,91.08
2018-04-26T07:16:29.377Z,91.36
2018-04-26T07:17:29.362Z,92.13
2018-04-26T07:18:29.343Z,93.65
2018-04-26T07:19:29.324Z,93.37
2018-04-26T07:20:29.316Z,94.79
2018-04-26T07:21:29.290Z,94.98
2018-04-26T07:22:29.273Z,93.60
2018-04-26T07:23:29.256Z,94.27
2018-04-26T07:24:29.237Z,94.08
2018-04-26T07:25:29.222Z,94.84
2018-04-26T07:26:29.204Z,95.22
2018-04-26T07:27:29.186Z,95.79
2018-04-26T07:28:29.169Z,96.55
2018-04-26T07:29:29.153Z,96.08
2018-04-26T07:30:29.135Z,97.79
2018-04-26T07:31:29.118Z,98.27
2018-04-26T07:32:29.108Z,98.55
2018-04-26T07:33:29.084Z,98.55
2018-04-26T07:34:29.068Z,99.03
2018-04-26T07:35:29.050Z,99.69
2018-04-26T07:36:29.041Z,99.99
2018-04-26T07:37:29.017Z,99.99
2018-04-26T07:38:28.999Z,99.99
2018-04-26T07:39:28.977Z,99.99
2018-04-26T07:40:28.964Z,99.99
2018-04-26T07:41:28.943Z,99.99
2018-04-26T07:42:28.925Z,99.99
2018-04-26T07:43:28.907Z,99.99
2018-04-26T07:44:28.891Z,99.99
2018-04-26T07:45:28.874Z,99.99
2018-04-26T07:46:28.858Z,99.99
2018-04-26T07:47:28.836Z,99.99
2018-04-26T07:48:28.819Z,99.99
2018-04-26T07:49:28.806Z,99.99
2018-04-26T07:50:28.785Z,99.99
2018-04-26T07:51:28.773Z,99.99
2018-04-26T07:52:28.749Z,99.99
2018-04-26T07:53:28.731Z,99.75
2018-04-26T07:54:28.714Z,98.90
2018-04-26T07:55:28.697Z,99.08
2018-04-26T07:56:28.683Z,97.85
2018-04-26T07:57:28.663Z,94.22
2018-04-26T07:58:28.647Z,93.31
2018-04-26T07:59:28.631Z,93.74
2018-04-26T08:00:28.613Z,95.08
2018-04-26T08:01:28.701Z,95.32
2018-04-26T08:02:28.588Z,94.74
2018-04-26T08:03:28.568Z,96.17
2018-04-26T08:04:28.552Z,95.51
2018-04-26T08:05:28.538Z,94.41
2018-04-26T08:06:28.524Z,94.12
2018-04-26T08:07:28.507Z,93.65
2018-04-26T08:08:28.492Z,91.74
2018-04-26T08:09:28.482Z,90.20
2018-04-26T08:10:28.464Z,90.20
2018-04-26T08:11:28.450Z,89.15
2018-04-26T08:12:28.437Z,88.34
2018-04-26T08:13:28.423Z,85.94
2018-04-26T08:14:28.410Z,84.61
2018-04-26T08:15:28.397Z,85.75
2018-04-26T08:16:28.384Z,85.61
2018-04-26T08:17:28.371Z,85.27
2018-04-26T08:18:28.363Z,84.84
2018-04-26T08:19:28.397Z,83.12
2018-04-26T08:20:28.335Z,83.50
2018-04-26T08:21:28.328Z,83.78
2018-04-26T08:22:28.317Z,81.81
2018-04-26T08:23:28.301Z,80.94
2018-04-26T08:24:28.289Z,79.03
2018-04-26T08:25:28.280Z,75.68
2018-04-26T08:26:28.269Z,76.35
2018-04-26T08:27:28.258Z,76.15
2018-04-26T08:28:28.250Z,76.82
2018-04-26T08:29:28.239Z,75.01
2018-04-26T08:30:28.270Z,76.00
2018-04-26T08:31:28.231Z,76.10
2018-04-26T08:32:28.213Z,74.37
2018-04-26T08:33:28.203Z,73.22
2018-04-26T08:34:28.199Z,74.12
2018-04-26T08:35:28.184Z,72.33
2018-04-26T08:36:28.175Z,71.37
2018-04-26T08:37:28.169Z,68.44
2018-04-26T08:38:28.169Z,70.39
2018-04-26T08:39:28.156Z,66.87
2018-04-26T08:40:28.147Z,64.56
2018-04-26T08:41:28.141Z,63.99
2018-04-26T08:42:28.135Z,62.74
2018-04-26T08:43:28.128Z,62.84
2018-04-26T08:44:28.125Z,64.43
2018-04-26T08:45:28.121Z,63.03
2018-04-26T08:46:28.108Z,65.39
2018-04-26T08:47:28.102Z,66.42
2018-04-26T08:48:28.098Z,67.25
2018-04-26T08:49:28.091Z,68.07
2018-04-26T08:50:28.087Z,69.86
2018-04-26T08:51:28.080Z,71.48
2018-04-26T08:52:28.107Z,72.73
2018-04-26T08:53:28.067Z,73.08
2018-04-26T08:54:28.061Z,72.88
2018-04-26T08:55:28.052Z,72.85
2018-04-26T08:56:28.048Z,75.14
2018-04-26T08:57:28.039Z,80.02
2018-04-26T08:58:28.031Z,86.19
2018-04-26T08:59:28.023Z,89.92
2018-04-26T09:00:28.013Z,95.79
2018-04-26T09:01:28.007Z,50.28
2018-04-26T09:02:28.000Z,52.57
2018-04-26T09:03:27.988Z,53.31
2018-04-26T09:04:27.979Z,53.47
2018-04-26T09:05:27.973Z,53.83
2018-04-26T09:06:27.958Z,53.52
2018-04-26T09:07:27.948Z,54.35
2018-04-26T09:08:27.938Z,55.01
2018-04-26T09:09:27.928Z,55.10
2018-04-26T09:10:27.917Z,55.39
2018-04-26T09:11:27.901Z,55.77
2018-04-26T09:12:27.896Z,56.27
2018-04-26T09:13:27.879Z,56.18
2018-04-26T09:14:27.866Z,56.56
2018-04-26T09:15:27.848Z,56.94
2018-04-26T09:16:27.835Z,56.94
2018-04-26T09:17:27.835Z,56.56
2018-04-26T09:18:27.812Z,57.13
2018-04-26T09:19:27.796Z,57.60
2018-04-26T09:20:27.782Z,57.32
2018-04-26T09:21:27.767Z,57.13
2018-04-26T09:22:27.754Z,57.51
2018-04-26T09:23:27.748Z,57.39
2018-04-26T09:24:27.724Z,57.67
2018-04-26T09:25:27.708Z,57.87
2018-04-26T09:26:27.698Z,57.67
2018-04-26T09:27:27.684Z,57.93
2018-04-26T09:28:27.664Z,57.36
2018-04-26T09:29:27.649Z,57.55
2018-04-26T09:30:27.632Z,57.55
2018-04-26T09:31:27.616Z,57.45
2018-04-26T09:32:27.603Z,57.74
2018-04-26T09:33:27.583Z,57.74
2018-04-26T09:34:27.569Z,57.45
2018-04-26T09:35:27.553Z,57.24
2018-04-26T09:36:27.537Z,58.03
2018-04-26T09:37:27.521Z,58.12
2018-04-26T09:38:27.503Z,58.09
2018-04-26T09:39:27.486Z,58.18
2018-04-26T09:40:27.468Z,58.18
2018-04-26T09:41:27.455Z,58.18
2018-04-26T09:42:27.450Z,57.90
2018-04-26T09:43:27.417Z,58.18
2018-04-26T09:44:27.401Z,58.00
2018-04-26T09:45:27.382Z,58.31
2018-04-26T09:46:27.374Z,58.47
2018-04-26T09:47:27.352Z,58.18
2018-04-26T09:48:27.332Z,58.57
2018-04-26T09:49:27.314Z,58.66
2018-04-26T09:50:27.300Z,58.69
2018-04-26T09:51:27.281Z,59.14
2018-04-26T09:52:27.269Z,58.59
2018-04-26T09:53:27.244Z,58.88
2018-04-26T09:54:27.231Z,59.36
2018-04-26T09:55:27.266Z,59.17
2018-04-26T09:56:27.192Z,58.88
2018-04-26T09:57:27.176Z,58.98
2018-04-26T09:58:27.160Z,59.20
2018-04-26T09:59:27.138Z,59.20
2018-04-26T10:00:27.126Z,59.10
2018-04-26T10:01:27.103Z,59.42
2018-04-26T10:02:27.086Z,59.70
2018-04-26T10:03:27.074Z,59.92
2018-04-26T10:04:27.053Z,59.74
2018-04-26T10:05:27.035Z,60.40
2018-04-26T10:06:27.021Z,59.64
2018-04-26T10:07:27.001Z,59.92
2018-04-26T10:08:27.039Z,59.64
2018-04-26T10:09:26.971Z,60.14
2018-04-26T10:10:26.954Z,60.24
2018-04-26T10:11:26.938Z,60.46
2018-04-26T10:12:26.920Z,60.55
2018-04-26T10:13:26.911Z,60.65
2018-04-26T10:14:26.894Z,60.65
2018-04-26T10:15:26.875Z,60.27
2018-04-26T10:16:26.862Z,60.36
2018-04-26T10:17:26.853Z,60.27
2018-04-26T10:18:26.830Z,60.55
2018-04-26T10:19:26.817Z,60.17
2018-04-26T10:20:26.806Z,60.43
2018-04-26T10:21:26.792Z,60.33
2018-04-26T10:22:26.779Z,60.62
2018-04-26T10:23:26.758Z,60.65
2018-04-26T10:24:26.746Z,61.25
2018-04-26T10:25:26.732Z,61.22
2018-04-26T10:26:26.718Z,61.09
2018-04-26T10:27:26.700Z,61.51
2018-04-26T10:28:26.691Z,61.05
2018-04-26T10:29:26.678Z,61.18
2018-04-26T10:30:26.667Z,61.21
2018-04-26T10:31:26.654Z,60.06
2018-04-26T10:32:26.663Z,59.48
2018-04-26T10:33:26.639Z,60.16
2018-04-26T10:34:26.627Z,61.43
2018-04-26T10:35:26.650Z,63.16
2018-04-26T10:36:26.605Z,62.07
2018-04-26T10:37:26.597Z,63.73
2018-04-26T10:38:26.589Z,64.28
2018-04-26T10:39:26.579Z,67.27
2018-04-26T10:40:26.572Z,70.87
2018-04-26T10:41:26.562Z,72.60
2018-04-26T10:42:26.560Z,74.51
2018-04-26T10:43:26.561Z,75.14
2018-04-26T10:44:26.635Z,77.76
2018-04-26T10:45:26.538Z,77.28
2018-04-26T10:46:26.527Z,78.47
2018-04-26T10:47:26.522Z,79.95
2018-04-26T10:48:26.513Z,80.27
2018-04-26T10:49:26.512Z,83.29
2018-04-26T10:50:26.499Z,84.25
2018-04-26T10:51:26.497Z,85.05
2018-04-26T10:52:26.491Z,84.09
2018-04-26T10:53:26.482Z,90.56
2018-04-26T10:54:26.476Z,99.01
2018-04-26T10:55:26.478Z,95.03
2018-04-26T10:56:26.467Z,89.81
2018-04-26T10:57:26.462Z,92.68
2018-04-26T10:58:26.459Z,92.01
2018-04-26T10:59:26.452Z,90.48
2018-04-26T11:00:26.448Z,88.33
2018-04-26T11:01:26.443Z,91.16
2018-04-26T11:02:26.492Z,94.17
2018-04-26T11:03:26.434Z,95.41
2018-04-26T11:04:26.426Z,96.80
2018-04-26T11:05:26.425Z,97.28
2018-04-26T11:06:26.418Z,94.65
2018-04-26T11:07:26.406Z,92.55
2018-04-26T11:08:26.400Z,93.65
2018-04-26T11:09:26.393Z,93.74
2018-04-26T11:10:26.392Z,94.60
2018-04-26T11:11:26.423Z,95.36
2018-04-26T11:12:26.372Z,92.50
2018-04-26T11:13:26.363Z,93.07
2018-04-26T11:14:26.356Z,93.07
2018-04-26T11:15:26.423Z,93.17
2018-04-26T11:16:26.339Z,92.83
2018-04-26T11:17:26.328Z,94.27
2018-04-26T11:18:26.321Z,92.26
2018-04-26T11:19:26.309Z,92.93
2018-04-26T11:20:26.299Z,92.65
2018-04-26T11:21:26.332Z,92.55
2018-04-26T11:22:26.279Z,93.02
2018-04-26T11:23:26.270Z,94.56
2018-04-26T11:24:26.282Z,91.88
2018-04-26T11:25:26.250Z,89.77
2018-04-26T11:26:26.242Z,89.00
2018-04-26T11:27:26.229Z,87.32
2018-04-26T11:28:26.221Z,84.97
2018-04-26T11:29:26.238Z,81.27
2018-04-26T11:30:26.207Z,81.75
2018-04-26T11:31:26.194Z,80.32
2018-04-26T11:32:26.187Z,78.36
2018-04-26T11:33:26.185Z,80.33
2018-04-26T11:34:26.181Z,77.75
2018-04-26T11:35:26.166Z,78.20
2018-04-26T11:36:26.158Z,78.40
2018-04-26T11:37:26.152Z,76.27
2018-04-26T11:38:26.176Z,73.39
2018-04-26T11:39:26.140Z,73.81
2018-04-26T11:40:26.136Z,70.51
2018-04-26T11:41:26.138Z,71.44
2018-04-26T11:42:26.124Z,72.27
2018-04-26T11:43:26.119Z,75.77
2018-04-26T11:44:26.114Z,74.68
2018-04-26T11:45:26.108Z,74.26
2018-04-26T11:46:26.101Z,77.13
2018-04-26T11:47:26.098Z,78.55
2018-04-26T11:48:26.090Z,76.39
2018-04-26T11:49:26.086Z,75.21
2018-04-26T11:50:26.101Z,74.01
2018-04-26T11:51:26.074Z,74.01
2018-04-26T11:52:26.155Z,73.87
2018-04-26T11:53:26.066Z,73.74
2018-04-26T11:54:38.798Z,69.48
2018-04-26T11:55:26.056Z,70.79
2018-04-26T11:56:26.095Z,73.54
2018-04-26T11:57:32.315Z,74.11
2018-04-26T11:58:26.040Z,74.36
2018-04-26T11:59:26.032Z,74.65
2018-04-26T12:00:26.025Z,74.51
2018-04-26T12:01:26.024Z,74.61
2018-04-26T12:02:26.073Z,75.52
2018-04-26T12:03:26.006Z,74.95
2018-04-26T12:04:25.999Z,75.18
2018-04-26T12:05:25.991Z,75.43
2018-04-26T12:06:25.986Z,75.89
2018-04-26T12:07:25.991Z,72.63
2018-04-26T12:08:25.972Z,73.54
2018-04-26T12:09:25.960Z,68.68
2018-04-26T12:10:25.956Z,68.46
2018-04-26T12:11:25.951Z,68.69
2018-04-26T12:12:25.939Z,64.79
2018-04-26T12:13:25.939Z,63.02
2018-04-26T12:14:25.965Z,59.86
2018-04-26T12:15:25.922Z,59.69
2018-04-26T12:16:25.917Z,60.11
2018-04-26T12:17:25.911Z,58.37
2018-04-26T12:18:25.922Z,58.92
2018-04-26T12:19:25.905Z,62.45
2018-04-26T12:20:25.896Z,60.63
2018-04-26T12:21:25.892Z,59.64
2018-04-26T12:22:25.886Z,59.03
2018-04-26T12:23:25.883Z,59.77
2018-04-26T12:24:25.878Z,59.96
2018-04-26T12:25:25.876Z,62.39
2018-04-26T12:26:25.874Z,62.36
2018-04-26T12:27:25.867Z,61.46
2018-04-26T12:28:25.859Z,62.30
2018-04-26T12:29:25.975Z,66.48
2018-04-26T12:30:25.849Z,64.66
2018-04-26T12:31:25.842Z,64.15
2018-04-26T12:32:25.835Z,66.80
2018-04-26T12:33:25.834Z,68.23
2018-04-26T12:34:25.826Z,70.91
2018-04-26T12:35:25.820Z,72.83
2018-04-26T12:36:25.811Z,73.84
2018-04-26T12:37:25.805Z,75.47
2018-04-26T12:38:25.802Z,75.95
2018-04-26T12:39:25.791Z,78.76
2018-04-26T12:40:25.782Z,78.19
2018-04-26T12:41:25.781Z,80.52
2018-04-26T12:42:25.848Z,79.99
2018-04-26T12:43:25.757Z,74.89
2018-04-26T12:44:25.750Z,75.40
2018-04-26T12:45:25.743Z,71.86
2018-04-26T12:46:25.738Z,70.42
2018-04-26T12:47:25.728Z,70.13
2018-04-26T12:48:25.719Z,69.42
2018-04-26T12:49:25.721Z,69.23
2018-04-26T12:50:25.714Z,68.33
2018-04-26T12:51:25.699Z,68.52
2018-04-26T12:52:25.693Z,70.89